Time;durP1;ratioP1;P1;durP2;ratioP2;P2;SDS_P1;SDS_P2;PMS_P1;PMS_P2;Temp;Humidity;BMP_temperature;BMP_pressure;BME280_temperature;BME280_humidity;BME280_pressure;Samples;Min_cycle;Max_cycle;Signal;HPM_P1;HPM_P2
2022/07/12 00:01:06;;;;;;;1.90;1.70;;;;;;;15.90;44.38;95349.94;4812353;29;20242;-63
2022/07/12 00:03:32;;;;;;;1.65;1.45;;;;;;;15.92;44.42;95351.41;4821582;29;20276;-64
2022/07/12 00:05:57;;;;;;;2.05;1.70;;;;;;;15.92;43.79;95356.72;4812136;29;20282;-63
2022/07/12 00:08:23;;;;;;;1.80;1.70;;;;;;;15.96;43.91;95359.81;4803624;29;20238;-63
2022/07/12 00:10:49;;;;;;;1.98;1.55;;;;;;;15.94;44.01;95354.72;4813375;29;20210;-63
2022/07/12 00:13:15;;;;;;;5.35;1.98;;;;;;;15.90;43.76;95355.22;4795762;29;20249;-63
2022/07/12 00:15:40;;;;;;;2.97;1.90;;;;;;;15.88;43.87;95356.25;4800187;29;20245;-63
2022/07/12 00:18:06;;;;;;;2.53;1.50;;;;;;;15.87;44.08;95351.94;4805689;29;20234;-63
2022/07/12 00:20:31;;;;;;;1.92;1.70;;;;;;;15.90;43.73;95347.28;4800595;29;20230;-62
2022/07/12 00:22:57;;;;;;;2.55;1.52;;;;;;;15.98;43.50;95356.00;4788300;29;20222;-63
2022/07/12 00:25:22;;;;;;;2.88;1.73;;;;;;;15.98;43.32;95357.81;4809596;29;20309;-63
2022/07/12 00:27:47;;;;;;;2.90;1.90;;;;;;;15.97;43.36;95354.34;4821846;29;20234;-63
2022/07/12 00:30:13;;;;;;;3.15;1.88;;;;;;;15.91;43.42;95360.38;4809266;29;20234;-63
2022/07/12 00:32:39;;;;;;;2.72;1.75;;;;;;;15.93;43.42;95353.06;4807617;29;20253;-63
2022/07/12 00:35:05;;;;;;;1.90;1.55;;;;;;;15.98;43.84;95353.34;4807956;29;20317;-63
2022/07/12 00:37:32;;;;;;;1.88;1.70;;;;;;;15.85;44.52;95359.25;4792265;29;20317;-62
2022/07/12 00:39:58;;;;;;;2.25;1.42;;;;;;;15.74;44.23;95351.69;4820515;29;20238;-63
2022/07/12 00:42:24;;;;;;;1.88;1.23;;;;;;;15.78;43.79;95347.69;4806399;29;20244;-64
2022/07/12 00:44:50;;;;;;;3.22;1.50;;;;;;;15.81;43.87;95352.63;4805807;29;20616;-63
2022/07/12 00:47:33;;;;;;;2.97;1.42;;;;;;;15.90;43.28;95342.78;4810871;29;20230;-63
2022/07/12 00:49:59;;;;;;;1.63;1.50;;;;;;;15.91;43.42;95348.94;4820686;29;20259;-63
2022/07/12 00:52:25;;;;;;;1.80;1.38;;;;;;;15.88;42.58;95344.81;4810606;29;20202;-63
2022/07/12 00:54:50;;;;;;;2.17;1.05;;;;;;;15.71;43.97;95351.22;4811151;29;20278;-63
2022/07/12 00:57:16;;;;;;;2.90;1.63;;;;;;;15.78;43.58;95337.09;4803850;29;20233;-63
2022/07/12 00:59:42;;;;;;;3.78;1.60;;;;;;;15.65;44.99;95334.97;4810502;29;20816;-63
2022/07/12 01:02:08;;;;;;;2.45;1.65;;;;;;;15.73;44.87;95343.91;4807704;29;20214;-63
2022/07/12 01:04:35;;;;;;;2.70;1.58;;;;;;;15.66;44.97;95344.59;4810808;29;20206;-63
2022/07/12 01:07:00;;;;;;;2.78;1.48;;;;;;;15.50;45.59;95342.00;4807558;29;20241;-63
2022/07/12 01:09:26;;;;;;;3.53;1.70;;;;;;;15.57;45.50;95347.47;4812910;29;20316;-63
2022/07/12 01:11:52;;;;;;;3.30;1.55;;;;;;;15.65;45.62;95344.75;4823078;29;20248;-63
2022/07/12 01:14:17;;;;;;;3.05;1.70;;;;;;;15.65;46.33;95344.75;4806277;29;20300;-63
2022/07/12 01:16:43;;;;;;;2.10;1.77;;;;;;;15.61;46.29;95343.44;4812201;29;20224;-63
2022/07/12 01:19:17;;;;;;;3.33;1.88;;;;;;;15.40;47.13;95344.09;4805910;29;20351;-63
2022/07/12 01:21:46;;;;;;;2.63;2.10;;;;;;;15.44;47.09;95345.38;4824126;29;20234;-63
2022/07/12 01:24:12;;;;;;;4.03;2.08;;;;;;;15.54;47.46;95351.28;4803999;29;20234;-63
2022/07/12 01:26:38;;;;;;;3.80;2.42;;;;;;;15.53;47.59;95341.69;4805879;29;20256;-63
2022/07/12 01:29:06;;;;;;;2.42;2.17;;;;;;;15.30;48.19;95352.22;4808961;29;20225;-64
2022/07/12 01:31:33;;;;;;;4.70;2.22;;;;;;;15.29;48.24;95350.59;4811662;29;20216;-63
2022/07/12 01:33:59;;;;;;;3.17;2.22;;;;;;;15.12;48.71;95355.09;4808842;29;20265;-63
2022/07/12 01:36:24;;;;;;;2.20;2.00;;;;;;;15.09;48.49;95344.03;4812350;29;20356;-63
2022/07/12 01:38:50;;;;;;;2.95;2.33;;;;;;;15.15;48.23;95348.66;4825078;29;20236;-63
2022/07/12 01:41:16;;;;;;;5.18;2.42;;;;;;;15.16;48.25;95342.38;4810728;29;20226;-62
2022/07/12 01:43:42;;;;;;;3.42;2.47;;;;;;;15.10;48.67;95348.34;4812988;29;20551;-63
2022/07/12 01:46:07;;;;;;;2.50;2.30;;;;;;;15.06;48.58;95350.50;4809252;29;20263;-63
2022/07/12 01:48:33;;;;;;;3.08;2.80;;;;;;;15.07;48.34;95346.84;4806962;29;20252;-63
2022/07/12 01:50:58;;;;;;;3.42;2.60;;;;;;;14.87;48.82;95342.97;4824749;29;20228;-63
2022/07/12 01:53:24;;;;;;;3.53;2.88;;;;;;;14.72;48.83;95346.28;4808193;29;20248;-63
2022/07/12 01:55:49;;;;;;;4.05;3.08;;;;;;;14.78;49.11;95342.13;4803916;29;20221;-63
2022/07/12 01:58:16;;;;;;;3.03;2.78;;;;;;;14.77;48.98;95349.25;4814357;29;20216;-62
2022/07/12 02:00:42;;;;;;;3.58;2.88;;;;;;;14.76;48.84;95350.28;4824163;29;20237;-63
2022/07/12 02:03:07;;;;;;;3.92;2.92;;;;;;;14.82;49.11;95351.41;4806350;29;20240;-63
2022/07/12 02:05:34;;;;;;;4.15;2.97;;;;;;;14.75;48.96;95351.28;4812539;29;20331;-63
2022/07/12 02:07:59;;;;;;;3.28;2.97;;;;;;;14.67;49.04;95350.44;4809100;29;20229;-64
2022/07/12 02:10:25;;;;;;;3.67;3.30;;;;;;;14.60;49.19;95350.31;4808797;29;20224;-63
2022/07/12 02:12:50;;;;;;;3.50;3.20;;;;;;;14.55;49.31;95348.16;4810616;29;20728;-63
2022/07/12 02:15:16;;;;;;;4.35;3.33;;;;;;;14.70;49.12;95360.69;4809944;29;20321;-63
2022/07/12 02:17:41;;;;;;;3.40;2.65;;;;;;;14.57;49.48;95348.00;4814767;29;20711;-63
2022/07/12 02:20:12;;;;;;;4.53;3.25;;;;;;;14.41;50.01;95355.94;4808108;29;20224;-63
2022/07/12 02:22:38;;;;;;;4.43;3.25;;;;;;;14.40;50.13;95352.44;4811509;29;20213;-63
2022/07/12 02:25:04;;;;;;;6.72;3.67;;;;;;;14.47;50.18;95361.38;4809632;29;20224;-63
2022/07/12 02:27:29;;;;;;;3.60;2.85;;;;;;;14.25;50.52;95357.59;4824745;29;20240;-63
2022/07/12 02:29:55;;;;;;;3.10;2.85;;;;;;;14.38;50.31;95357.09;4808648;29;20288;-63
2022/07/12 02:32:20;;;;;;;3.40;3.08;;;;;;;14.32;50.51;95350.63;4811766;29;20231;-63
2022/07/12 02:34:45;;;;;;;6.43;3.53;;;;;;;14.43;50.18;95352.09;4814267;29;20241;-63
2022/07/12 02:37:11;;;;;;;3.50;3.20;;;;;;;14.35;50.43;95352.09;4813331;29;20308;-62
2022/07/12 02:39:37;;;;;;;5.20;3.13;;;;;;;14.30;50.72;95354.44;4813440;29;20233;-62
2022/07/12 02:42:03;;;;;;;5.15;3.08;;;;;;;14.34;50.67;95356.59;4829139;29;20393;-62
2022/07/12 02:44:28;;;;;;;4.53;3.05;;;;;;;14.44;50.34;95361.72;4829451;29;20224;-63
2022/07/12 02:46:54;;;;;;;3.92;2.85;;;;;;;14.18;51.16;95361.88;4813510;29;20217;-63
2022/07/12 02:49:19;;;;;;;4.75;3.10;;;;;;;14.30;50.78;95365.00;4830118;29;20220;-62
2022/07/12 02:51:44;;;;;;;2.95;2.75;;;;;;;14.17;51.07;95354.13;4829866;29;20252;-63
2022/07/12 02:54:10;;;;;;;5.57;2.60;;;;;;;14.22;50.96;95351.78;4818341;29;20240;-63
2022/07/12 02:56:35;;;;;;;4.80;2.45;;;;;;;14.19;51.13;95344.19;4817556;29;20712;-63
2022/07/12 02:59:01;;;;;;;6.65;2.40;;;;;;;14.22;51.13;95362.38;4817751;29;20280;-63
2022/07/12 03:01:26;;;;;;;4.15;3.10;;;;;;;14.20;51.27;95359.09;4830891;29;20220;-63
2022/07/12 03:03:52;;;;;;;3.97;2.35;;;;;;;14.12;51.73;95366.00;4813046;29;20777;-63
2022/07/12 03:06:17;;;;;;;2.92;2.60;;;;;;;14.15;51.49;95366.69;4812457;29;20273;-63
2022/07/12 03:08:43;;;;;;;4.35;2.95;;;;;;;14.22;51.40;95363.22;4820694;29;20225;-63
2022/07/12 03:11:08;;;;;;;3.40;2.75;;;;;;;14.25;51.25;95377.94;4816229;29;20212;-64
2022/07/12 03:13:34;;;;;;;2.80;2.60;;;;;;;14.39;50.99;95374.59;4817223;29;20212;-63
2022/07/12 03:15:59;;;;;;;4.72;2.88;;;;;;;14.39;50.57;95369.31;4815055;29;20248;-63
2022/07/12 03:18:25;;;;;;;5.00;2.40;;;;;;;14.26;50.45;95380.38;4820443;29;20232;-63
2022/07/12 03:20:50;;;;;;;2.88;2.28;;;;;;;14.39;50.24;95385.19;4818385;29;20328;-63
2022/07/12 03:23:16;;;;;;;3.67;2.60;;;;;;;14.33;50.39;95376.09;4818890;29;20308;-63
2022/07/12 03:25:41;;;;;;;4.10;2.45;;;;;;;14.38;50.29;95382.69;4822116;29;20216;-63
2022/07/12 03:28:06;;;;;;;5.53;2.42;;;;;;;14.36;50.60;95390.00;4834587;29;20236;-63
2022/07/12 03:30:32;;;;;;;3.60;2.40;;;;;;;14.25;50.85;95391.16;4817671;29;20233;-63
2022/07/12 03:32:57;;;;;;;3.20;2.40;;;;;;;14.36;50.58;95390.81;4819456;29;20236;-63
2022/07/12 03:35:24;;;;;;;4.15;2.20;;;;;;;14.30;50.54;95384.38;4812545;29;20636;-63
2022/07/12 03:37:50;;;;;;;4.03;2.17;;;;;;;14.27;51.02;95392.66;4813943;29;20234;-62
2022/07/12 03:40:18;;;;;;;2.92;2.20;;;;;;;14.25;50.74;95383.22;4819143;29;20657;-63
2022/07/12 03:42:43;;;;;;;5.45;2.60;;;;;;;14.28;51.04;95391.63;4830540;29;20234;-63
2022/07/12 03:45:10;;;;;;;2.50;2.30;;;;;;;14.34;50.94;95398.09;4816588;29;20262;-63
2022/07/12 03:47:37;;;;;;;3.15;2.42;;;;;;;14.32;50.75;95387.66;4816911;29;20228;-63
2022/07/12 03:50:13;;;;;;;3.35;2.45;;;;;;;14.38;50.54;95391.50;4814471;29;20228;-63
2022/07/12 03:52:40;;;;;;;2.90;2.10;;;;;;;14.34;50.62;95390.97;4823191;29;20197;-63
2022/07/12 03:55:06;;;;;;;4.35;2.50;;;;;;;14.36;50.44;95385.53;4821873;29;20233;-62
2022/07/12 03:57:31;;;;;;;2.50;2.30;;;;;;;14.34;50.50;95396.25;4814078;29;20252;-63
2022/07/12 03:59:57;;;;;;;2.78;2.10;;;;;;;14.33;50.47;95399.91;4816230;29;20252;-62
2022/07/12 04:02:22;;;;;;;2.83;2.60;;;;;;;14.33;50.35;95396.44;4809032;29;20233;-63
2022/07/12 04:04:48;;;;;;;3.25;2.17;;;;;;;14.26;50.60;95395.44;4820100;29;20274;-63
2022/07/12 04:07:13;;;;;;;3.50;2.25;;;;;;;14.28;50.51;95407.50;4816529;29;20229;-62
2022/07/12 04:09:39;;;;;;;4.20;2.45;;;;;;;14.30;50.64;95402.03;4795179;29;20233;-63
2022/07/12 04:12:05;;;;;;;2.45;2.25;;;;;;;14.17;50.74;95404.38;4813456;29;20236;-63
2022/07/12 04:14:30;;;;;;;4.72;2.58;;;;;;;13.99;50.85;95407.97;4811514;29;20343;-63
2022/07/12 04:16:56;;;;;;;3.45;2.90;;;;;;;14.01;50.64;95403.38;4829547;29;20217;-63
2022/07/12 04:19:25;;;;;;;5.40;2.85;;;;;;;13.95;51.47;95406.63;4816620;29;20212;-63
2022/07/12 04:21:50;;;;;;;6.72;2.50;;;;;;;14.12;50.93;95421.53;4816131;29;20228;-63
2022/07/12 04:24:16;;;;;;;3.08;2.10;;;;;;;14.26;50.70;95419.25;4811844;29;20232;-63
2022/07/12 04:26:41;;;;;;;3.25;2.58;;;;;;;14.20;50.64;95407.50;4814968;29;20316;-64
2022/07/12 04:29:07;;;;;;;3.20;2.80;;;;;;;13.79;51.86;95419.81;4819729;29;20200;-63
2022/07/12 04:31:32;;;;;;;7.45;2.80;;;;;;;14.11;51.23;95419.06;4813057;29;20217;-63
2022/07/12 04:33:58;;;;;;;3.22;2.72;;;;;;;14.13;50.93;95419.72;4815400;29;20231;-63
2022/07/12 04:36:23;;;;;;;5.35;2.67;;;;;;;14.09;51.72;95427.16;4815888;29;20848;-64
2022/07/12 04:38:48;;;;;;;3.53;3.22;;;;;;;14.10;51.68;95428.00;4810407;29;20225;-64
2022/07/12 04:41:15;;;;;;;5.15;3.15;;;;;;;13.88;52.20;95432.09;4825679;29;20228;-64
2022/07/12 04:43:40;;;;;;;4.72;3.42;;;;;;;14.09;51.98;95432.47;4808780;29;20743;-64
2022/07/12 04:46:07;;;;;;;5.65;3.20;;;;;;;14.12;52.34;95432.13;4824390;29;20229;-64
2022/07/12 04:48:32;;;;;;;4.05;3.22;;;;;;;14.29;51.35;95426.84;4810094;29;20225;-64
2022/07/12 04:50:58;;;;;;;3.90;3.25;;;;;;;14.60;50.74;95426.25;4812772;29;20232;-64
2022/07/12 04:53:23;;;;;;;4.40;3.58;;;;;;;14.38;50.56;95430.31;4815837;29;20241;-64
2022/07/12 04:55:49;;;;;;;3.65;3.22;;;;;;;14.16;51.06;95437.09;4812401;29;20219;-64
2022/07/12 04:58:14;;;;;;;4.43;3.58;;;;;;;14.36;50.41;95427.84;4810653;29;20241;-65
2022/07/12 05:00:40;;;;;;;6.80;3.72;;;;;;;14.32;51.00;95435.28;4812129;29;20241;-65
2022/07/12 05:03:05;;;;;;;5.55;3.65;;;;;;;14.34;50.94;95432.47;4811629;29;20233;-65
2022/07/12 05:05:30;;;;;;;5.47;3.70;;;;;;;14.53;50.56;95429.53;4812447;29;20229;-64
2022/07/12 05:07:56;;;;;;;6.55;3.58;;;;;;;14.64;50.27;95435.47;4806633;29;20220;-65
2022/07/12 05:10:21;;;;;;;7.93;4.28;;;;;;;14.86;49.93;95437.47;4825497;29;20301;-66
2022/07/12 05:12:47;;;;;;;4.45;3.83;;;;;;;15.06;49.29;95439.72;4814033;29;20245;-64
2022/07/12 05:15:12;;;;;;;7.32;3.80;;;;;;;15.01;49.06;95437.59;4815499;29;20578;-65
2022/07/12 05:17:37;;;;;;;4.38;3.78;;;;;;;15.09;49.18;95440.22;4801892;29;20241;-65
2022/07/12 05:20:03;;;;;;;4.10;3.45;;;;;;;15.08;49.05;95435.91;4810759;29;20631;-66
2022/07/12 05:22:30;;;;;;;5.75;3.53;;;;;;;15.20;48.79;95436.38;4811086;29;20213;-65
2022/07/12 05:24:55;;;;;;;5.15;3.78;;;;;;;15.10;49.43;95433.94;4821216;29;20325;-66
2022/07/12 05:27:21;;;;;;;4.07;3.67;;;;;;;15.24;48.75;95436.88;4828790;29;20742;-65
2022/07/12 05:29:46;;;;;;;4.45;3.75;;;;;;;15.30;48.23;95434.38;4813639;29;20226;-66
2022/07/12 05:32:12;;;;;;;5.22;3.25;;;;;;;15.28;48.69;95444.28;4816155;29;20237;-65
2022/07/12 05:34:38;;;;;;;4.07;3.67;;;;;;;15.35;49.07;95453.22;4800394;29;20245;-65
2022/07/12 05:37:04;;;;;;;5.22;4.38;;;;;;;15.62;49.08;95436.06;4821934;29;20724;-64
2022/07/12 05:39:29;;;;;;;5.38;3.92;;;;;;;15.63;48.78;95439.53;4811284;29;20237;-65
2022/07/12 05:41:55;;;;;;;5.50;3.78;;;;;;;15.65;48.44;95433.06;4823228;29;20260;-65
2022/07/12 05:44:20;;;;;;;6.57;4.18;;;;;;;15.71;47.78;95439.53;4815315;29;20244;-64
2022/07/12 05:46:46;;;;;;;5.80;4.57;;;;;;;15.72;48.63;95438.53;4814322;29;20280;-64
2022/07/12 05:49:11;;;;;;;5.95;4.28;;;;;;;15.60;49.21;95440.69;4817200;29;20300;-63
2022/07/12 05:54:21;;;;;;;7.10;5.03;;;;;;;15.75;50.63;95432.06;4829310;29;20248;-63
2022/07/12 05:56:47;;;;;;;5.60;5.10;;;;;;;15.91;50.60;95436.47;4813186;29;20226;-62
2022/07/12 05:59:12;;;;;;;5.90;4.70;;;;;;;15.83;49.32;95438.16;4813213;29;20263;-62
2022/07/12 06:01:37;;;;;;;6.53;4.70;;;;;;;15.92;50.09;95425.66;4815561;29;20209;-62
2022/07/12 06:04:03;;;;;;;8.93;4.28;;;;;;;15.89;50.75;95433.97;4810195;29;20230;-62
2022/07/12 06:06:28;;;;;;;7.18;3.90;;;;;;;16.08;49.10;95432.69;4808019;29;20636;-63
2022/07/12 06:08:54;;;;;;;8.75;3.80;;;;;;;16.27;48.06;95429.56;4822941;29;20286;-63
2022/07/12 06:11:19;;;;;;;4.60;3.13;;;;;;;16.39;47.58;95427.34;4823886;29;20233;-64
2022/07/12 06:13:45;;;;;;;8.38;3.78;;;;;;;16.47;47.75;95421.97;4821270;29;20213;-63
2022/07/12 06:16:11;;;;;;;4.90;3.25;;;;;;;16.58;47.14;95419.91;4808606;29;20244;-63
2022/07/12 06:18:37;;;;;;;6.85;3.60;;;;;;;16.64;47.10;95419.19;4813081;29;20275;-63
2022/07/12 06:21:03;;;;;;;6.10;3.50;;;;;;;16.62;47.71;95415.88;4814017;29;20247;-62
2022/07/12 06:23:29;;;;;;;7.95;4.70;;;;;;;16.57;47.69;95412.94;4810420;29;20240;-62
2022/07/12 06:25:54;;;;;;;8.48;3.50;;;;;;;16.62;48.83;95411.38;4809882;29;20248;-63
2022/07/12 06:28:20;;;;;;;6.60;3.03;;;;;;;16.73;45.93;95418.94;4812663;29;20217;-62
2022/07/12 06:30:45;;;;;;;3.53;2.50;;;;;;;16.69;48.78;95420.28;4810072;29;20232;-62
2022/07/12 06:33:11;;;;;;;5.60;2.80;;;;;;;16.89;46.08;95418.00;4822155;29;20712;-62
2022/07/12 06:35:36;;;;;;;4.95;2.65;;;;;;;16.92;45.67;95420.28;4799461;29;20298;-63
2022/07/12 06:38:02;;;;;;;6.78;2.55;;;;;;;17.07;44.60;95425.59;4790858;29;20626;-63
2022/07/12 06:40:28;;;;;;;4.00;2.08;;;;;;;17.08;44.73;95418.44;4824401;29;20228;-63
2022/07/12 06:42:53;;;;;;;3.08;2.30;;;;;;;17.11;43.61;95410.97;4813414;29;20843;-63
2022/07/12 06:45:19;;;;;;;2.78;2.10;;;;;;;17.12;43.37;95420.56;4809356;29;20234;-63
2022/07/12 06:47:44;;;;;;;3.97;2.25;;;;;;;17.13;42.81;95414.25;4821717;29;20646;-62
2022/07/12 06:50:10;;;;;;;5.72;2.00;;;;;;;17.17;43.26;95414.72;4803441;29;20221;-63
2022/07/12 06:52:35;;;;;;;3.13;2.00;;;;;;;17.20;44.12;95411.69;4810493;29;20206;-63
2022/07/12 06:55:01;;;;;;;6.65;2.45;;;;;;;17.27;43.81;95406.44;4821626;29;20220;-63
2022/07/12 06:57:27;;;;;;;4.50;1.90;;;;;;;17.34;43.17;95405.53;4815270;29;20232;-63
2022/07/12 06:59:52;;;;;;;6.95;1.77;;;;;;;17.42;43.13;95405.44;4811356;29;20398;-62
2022/07/12 07:02:18;;;;;;;4.90;2.20;;;;;;;17.48;43.76;95398.59;4812561;29;20257;-63
2022/07/12 07:04:43;;;;;;;5.28;2.20;;;;;;;17.61;43.49;95406.72;4813201;29;20209;-63
2022/07/12 07:07:09;;;;;;;5.97;2.28;;;;;;;17.61;43.32;95404.06;4806244;29;20228;-63
2022/07/12 07:09:34;;;;;;;4.90;2.30;;;;;;;17.62;43.35;95407.56;4808734;29;20297;-63
2022/07/12 07:12:00;;;;;;;5.65;2.45;;;;;;;17.57;43.26;95405.44;4817487;29;20324;-62
2022/07/12 07:14:27;;;;;;;6.07;2.15;;;;;;;17.65;43.06;95399.19;4813453;29;20668;-62
2022/07/12 07:16:55;;;;;;;3.45;2.00;;;;;;;17.70;43.03;95401.31;4814314;29;20292;-63
2022/07/12 07:19:22;;;;;;;4.97;2.30;;;;;;;17.78;42.58;95406.50;4822200;29;20232;-63
2022/07/12 07:21:48;;;;;;;4.50;2.22;;;;;;;17.75;42.68;95399.72;4808175;29;20313;-63
2022/07/12 07:24:13;;;;;;;5.15;2.00;;;;;;;17.87;42.46;95404.59;4809018;29;20226;-63
2022/07/12 07:26:39;;;;;;;4.75;2.08;;;;;;;17.91;42.25;95403.19;4807901;29;20241;-63
2022/07/12 07:31:48;;;;;;;4.25;1.58;;;;;;;18.13;40.63;95407.53;4830663;29;20322;-61
2022/07/12 07:34:14;;;;;;;3.67;1.50;;;;;;;18.23;39.91;95409.88;4817152;29;20726;-62
2022/07/12 07:36:39;;;;;;;3.00;1.38;;;;;;;18.26;39.91;95404.19;4812596;29;20286;-62
2022/07/12 07:39:05;;;;;;;4.30;1.73;;;;;;;18.39;40.76;95404.31;4810899;29;20230;-62
2022/07/12 07:41:30;;;;;;;3.45;1.83;;;;;;;18.54;39.88;95398.91;4823655;29;20228;-62
2022/07/12 07:43:55;;;;;;;3.47;2.50;;;;;;;18.69;37.30;95398.84;4816040;29;20213;-62
2022/07/12 07:46:21;;;;;;;6.07;1.50;;;;;;;18.89;37.75;95399.00;4812385;29;20668;-62
2022/07/12 07:48:47;;;;;;;3.38;1.38;;;;;;;18.94;35.70;95397.41;4817189;29;20719;-62
2022/07/12 07:51:12;;;;;;;4.22;1.50;;;;;;;18.93;37.15;95398.44;4815227;29;20228;-63
2022/07/12 07:53:37;;;;;;;4.60;1.98;;;;;;;18.95;35.44;95391.09;4826243;29;20243;-62
2022/07/12 07:56:03;;;;;;;3.22;1.95;;;;;;;18.99;36.11;95396.84;4815432;29;20971;-62
2022/07/12 07:58:28;;;;;;;3.78;1.55;;;;;;;19.06;35.33;95389.72;4815645;29;20225;-62
2022/07/12 08:00:54;;;;;;;2.75;1.33;;;;;;;19.12;35.46;95401.44;4818038;29;20328;-62
2022/07/12 08:03:20;;;;;;;2.78;1.35;;;;;;;19.14;34.15;95396.75;4829026;29;20241;-62
2022/07/12 08:05:46;;;;;;;2.83;1.48;;;;;;;19.09;34.93;95392.00;4814455;29;20235;-62
2022/07/12 08:08:12;;;;;;;3.08;1.30;;;;;;;19.11;35.36;95397.09;4811018;29;20653;-61
2022/07/12 08:10:38;;;;;;;4.85;1.48;;;;;;;19.23;35.16;95403.56;4814322;29;20280;-63
2022/07/12 08:13:04;;;;;;;3.45;1.33;;;;;;;19.14;34.21;95392.22;4826068;29;20232;-62
2022/07/12 08:15:29;;;;;;;3.30;1.73;;;;;;;19.36;33.75;95392.16;4823963;29;20244;-62
2022/07/12 08:17:55;;;;;;;2.33;1.08;;;;;;;19.44;34.44;95386.66;4808442;29;20229;-63
2022/07/12 08:20:23;;;;;;;2.90;1.30;;;;;;;19.41;34.91;95387.03;4812436;29;20226;-63
2022/07/12 08:22:48;;;;;;;2.67;1.27;;;;;;;19.59;34.42;95387.34;4828824;29;20296;-62
2022/07/12 08:25:14;;;;;;;3.88;1.90;;;;;;;19.66;33.86;95382.06;4826172;29;20308;-62
2022/07/12 08:27:39;;;;;;;3.38;1.88;;;;;;;19.59;34.29;95373.16;4809148;29;20244;-62
2022/07/12 08:30:05;;;;;;;5.45;2.30;;;;;;;19.71;35.27;95378.78;4824056;29;20533;-62
2022/07/12 08:32:31;;;;;;;9.18;1.98;;;;;;;19.80;32.67;95373.06;4815189;29;20297;-62
2022/07/12 08:34:56;;;;;;;1.65;1.25;;;;;;;19.60;31.51;95372.97;4815508;29;20233;-62
2022/07/12 08:37:22;;;;;;;1.55;1.25;;;;;;;19.57;31.97;95385.88;4810877;29;20213;-62
2022/07/12 08:39:48;;;;;;;2.45;1.67;;;;;;;19.55;33.42;95377.25;4830400;29;20229;-62
2022/07/12 08:42:20;;;;;;;1.52;1.08;;;;;;;19.44;32.74;95373.31;4819712;29;20251;-63
2022/07/12 08:44:56;;;;;;;3.35;1.40;;;;;;;19.42;33.29;95375.34;4828135;29;20229;-63
2022/07/12 08:47:22;;;;;;;1.98;1.10;;;;;;;19.57;33.19;95375.22;4816093;29;20715;-63
2022/07/12 08:50:17;;;;;;;2.97;1.35;;;;;;;19.78;33.77;95364.47;4812848;29;20308;-62
2022/07/12 08:52:51;;;;;;;5.80;2.45;;;;;;;19.85;33.40;95364.47;4806824;29;20371;-62
2022/07/12 08:55:19;;;;;;;2.72;1.52;;;;;;;20.07;32.54;95358.97;4809553;29;20248;-61
2022/07/12 08:57:45;;;;;;;3.30;1.60;;;;;;;20.02;33.29;95362.25;4804486;29;20239;-62
2022/07/12 09:00:11;;;;;;;3.28;1.40;;;;;;;19.94;33.28;95355.25;4806288;29;20217;-62
2022/07/12 09:02:52;;;;;;;2.97;1.52;;;;;;;19.75;32.71;95351.53;4807103;29;20339;-62
2022/07/12 09:05:20;;;;;;;3.72;1.40;;;;;;;19.86;33.29;95360.78;4802480;29;20690;-62
2022/07/12 09:11:26;;;;;;;3.90;1.42;;;;;;;20.13;30.18;95360.81;4848683;29;20266;-70
2022/07/12 09:13:54;;;;;;;2.95;1.13;;;;;;;20.17;29.34;95352.22;4823474;29;20205;-70
2022/07/12 09:16:25;;;;;;;4.57;1.40;;;;;;;20.19;30.01;95346.69;4840065;29;20778;-71
2022/07/12 09:18:51;;;;;;;6.15;1.50;;;;;;;20.15;30.49;95354.25;4831753;29;20218;-71
2022/07/12 09:21:27;;;;;;;2.42;1.17;;;;;;;20.13;31.22;95351.00;4817131;29;20225;-71
2022/07/12 09:23:57;;;;;;;2.20;1.25;;;;;;;20.34;30.71;95343.81;4837152;29;20212;-71
2022/07/12 09:26:29;;;;;;;4.50;1.10;;;;;;;20.46;30.60;95342.19;4822247;29;20233;-69
2022/07/12 09:29:09;;;;;;;3.75;1.00;;;;;;;20.53;29.57;95352.84;4838787;29;20323;-70
2022/07/12 09:36:06;;;;;;;4.78;1.60;;;;;;;20.46;28.96;95344.84;4826160;29;20217;-69
2022/07/12 09:37:12;;;;;;;4.13;1.23;;;;;;;20.78;30.61;95334.41;4827269;29;20292;-70
2022/07/12 09:39:38;;;;;;;2.47;1.20;;;;;;;20.92;30.13;95341.34;4828761;29;20307;-69
2022/07/12 09:42:06;;;;;;;1.80;1.00;;;;;;;20.90;29.51;95348.75;4827335;29;20292;-69
2022/07/12 09:44:32;;;;;;;2.42;1.10;;;;;;;20.86;29.61;95348.34;4826205;29;20217;-69
2022/07/12 09:47:00;;;;;;;2.08;0.80;;;;;;;20.72;27.03;95346.75;4832998;29;20242;-70
2022/07/12 09:49:26;;;;;;;1.83;0.85;;;;;;;20.87;28.06;95346.50;4823967;29;20320;-70
2022/07/12 09:51:55;;;;;;;2.65;1.02;;;;;;;20.96;27.96;95344.44;4825327;29;20643;-70
2022/07/12 09:54:25;;;;;;;1.63;1.23;;;;;;;21.09;28.62;95339.91;4841385;29;20233;-69
2022/07/12 09:56:54;;;;;;;2.10;1.02;;;;;;;21.40;27.62;95326.88;4831916;29;20232;-69
2022/07/12 09:59:23;;;;;;;1.60;1.00;;;;;;;21.46;27.83;95336.72;4841927;29;20240;-68
2022/07/12 10:01:50;;;;;;;2.42;1.50;;;;;;;21.43;27.53;95342.50;4830200;29;20320;-69
2022/07/12 10:04:21;;;;;;;1.73;1.10;;;;;;;21.13;26.65;95343.78;4840653;29;20527;-71
2022/07/12 10:06:47;;;;;;;2.30;0.90;;;;;;;21.01;26.77;95342.78;4830021;29;20233;-71
2022/07/12 10:09:14;;;;;;;1.88;1.10;;;;;;;21.22;27.19;95335.53;4834211;29;20233;-70
2022/07/12 10:11:41;;;;;;;1.50;1.08;;;;;;;21.36;27.03;95326.44;4833066;29;20232;-70
2022/07/12 10:14:11;;;;;;;1.90;0.90;;;;;;;21.34;26.27;95329.31;4828276;29;20286;-71
2022/07/12 10:16:38;;;;;;;2.67;1.05;;;;;;;21.52;26.00;95325.19;4828883;29;20295;-70
2022/07/12 10:19:23;;;;;;;1.20;0.90;;;;;;;21.64;26.15;95325.34;4827729;29;20243;-70
2022/07/12 10:21:49;;;;;;;2.42;0.95;;;;;;;21.68;26.59;95324.69;4829323;29;20237;-69
2022/07/12 10:24:45;;;;;;;2.63;1.10;;;;;;;21.75;25.71;95322.78;4829671;29;21710;-69
2022/07/12 10:27:13;;;;;;;3.78;0.98;;;;;;;21.53;24.66;95316.94;4776440;29;20238;-70
2022/07/12 10:29:43;;;;;;;2.85;1.00;;;;;;;21.35;25.76;95312.22;4779586;29;20254;-70
2022/07/12 10:32:33;;;;;;;4.18;1.10;;;;;;;21.58;25.79;95317.13;4793436;29;20338;-70
2022/07/12 10:35:00;;;;;;;1.95;0.70;;;;;;;21.72;24.75;95320.53;4776259;29;20667;-70
2022/07/12 10:37:26;;;;;;;3.55;0.90;;;;;;;21.69;24.91;95325.50;4793883;29;20222;-70
2022/07/12 10:40:13;;;;;;;2.22;1.05;;;;;;;21.75;26.10;95314.75;4779875;29;20234;-71
2022/07/12 10:42:39;;;;;;;1.50;0.82;;;;;;;21.80;26.56;95311.44;4795144;29;20849;-70
2022/07/12 10:45:13;;;;;;;2.20;1.00;;;;;;;22.02;26.04;95318.13;4775282;29;20721;-71
2022/07/12 10:47:55;;;;;;;3.15;1.00;;;;;;;21.96;26.09;95300.22;4778640;29;20235;-70
2022/07/12 10:53:38;;;;;;;5.47;1.45;;;;;;;22.17;26.28;95303.59;4743741;30;20220;-71
2022/07/12 10:56:06;;;;;;;2.58;0.90;;;;;;;22.31;26.06;95310.53;4729381;30;20220;-69
2022/07/12 10:58:45;;;;;;;4.03;1.05;;;;;;;22.29;25.42;95320.63;4743957;30;20229;-69
2022/07/12 11:01:17;;;;;;;3.47;0.90;;;;;;;22.23;25.46;95305.44;4743922;30;20228;-70
2022/07/12 11:03:54;;;;;;;2.50;0.90;;;;;;;22.33;25.42;95300.41;4743146;30;20231;-69
2022/07/12 11:06:22;;;;;;;1.83;1.00;;;;;;;22.19;25.56;95310.41;4763086;30;20250;-71
2022/07/12 11:08:59;;;;;;;1.60;1.08;;;;;;;22.47;26.03;95303.81;4761848;30;20250;-69
2022/07/12 11:11:29;;;;;;;1.92;1.23;;;;;;;22.85;25.44;95319.78;4742261;30;20263;-68
2022/07/12 11:13:56;;;;;;;3.95;1.20;;;;;;;22.95;24.94;95313.06;4742951;30;20231;-69
2022/07/12 11:16:23;;;;;;;1.38;0.98;;;;;;;22.95;25.40;95311.22;4742709;30;20782;-68
2022/07/12 11:18:49;;;;;;;1.27;0.80;;;;;;;22.89;25.44;95314.78;4750910;30;20322;-69
2022/07/12 11:21:14;;;;;;;1.75;1.40;;;;;;;22.70;26.33;95318.47;4747140;30;20326;-69
2022/07/12 11:23:40;;;;;;;3.35;0.90;;;;;;;22.96;25.92;95317.38;4763706;30;20770;-68
2022/07/12 11:26:08;;;;;;;5.13;1.20;;;;;;;23.23;26.07;95313.44;4743185;30;20211;-69
2022/07/12 11:28:34;;;;;;;1.10;0.90;;;;;;;23.52;24.75;95308.34;4742109;30;20203;-68
2022/07/12 11:31:14;;;;;;;5.80;1.20;;;;;;;23.68;24.78;95307.75;4802548;29;20330;-70
2022/07/12 11:33:44;;;;;;;1.95;1.05;;;;;;;23.63;25.13;95307.59;4815052;29;20234;-69
2022/07/12 11:36:12;;;;;;;2.35;1.20;;;;;;;23.70;24.95;95305.63;4828910;29;20230;-69
2022/07/12 11:38:42;;;;;;;1.30;0.95;;;;;;;23.67;24.72;95306.09;4815847;29;20244;-68
2022/07/12 11:41:09;;;;;;;2.38;0.98;;;;;;;23.74;24.73;95298.00;4807649;29;20213;-69
2022/07/12 11:43:35;;;;;;;1.77;1.10;;;;;;;23.88;24.79;95290.56;4809428;29;20209;-71
2022/07/12 11:46:03;;;;;;;1.58;1.20;;;;;;;24.16;25.04;95298.00;4810088;29;20604;-71
2022/07/12 11:48:32;;;;;;;2.72;1.20;;;;;;;24.21;25.01;95290.06;4803041;29;20332;-72